Time;durP1;ratioP1;P1;durP2;ratioP2;P2;SDS_P1;SDS_P2;PMS_P1;PMS_P2;Temp;Humidity;BMP_temperature;BMP_pressure;BME280_temperature;BME280_humidity;BME280_pressure;Samples;Min_cycle;Max_cycle;Signal;HPM_P1;HPM_P2
2022/04/04 00:00:40;;;;;;;8.70;7.80;;;;;;;7.15;48.95;101612.16;5104469;28;20414;-58
2022/04/04 00:03:07;;;;;;;9.38;8.48;;;;;;;7.23;48.41;101604.44;5104309;28;20439;-58
2022/04/04 00:05:33;;;;;;;8.52;7.72;;;;;;;7.40;47.77;101607.50;5103975;28;20424;-58
2022/04/04 00:08:02;;;;;;;8.93;8.05;;;;;;;7.19;48.25;101605.66;5104342;28;20412;-58
2022/04/04 00:10:29;;;;;;;8.80;7.90;;;;;;;7.11;48.41;101613.34;5090915;28;20413;-58
2022/04/04 00:12:56;;;;;;;8.70;7.90;;;;;;;7.08;48.88;101613.63;5090676;28;20421;-58
2022/04/04 00:15:23;;;;;;;9.20;8.30;;;;;;;7.00;48.80;101610.75;5090165;28;20496;-57
2022/04/04 00:17:50;;;;;;;9.00;8.10;;;;;;;7.08;49.11;101609.19;5086391;28;20416;-58
2022/04/04 00:20:17;;;;;;;8.80;7.90;;;;;;;6.88;48.98;101605.53;5089102;28;20937;-58
2022/04/04 00:22:44;;;;;;;8.80;7.93;;;;;;;6.88;49.20;101602.91;5090372;28;20416;-58
2022/04/04 00:25:13;;;;;;;8.70;7.97;;;;;;;7.06;48.52;101602.38;5090410;28;20414;-58
2022/04/04 00:27:40;;;;;;;8.10;7.30;;;;;;;7.02;48.99;101607.06;5090453;28;20405;-58
2022/04/04 00:30:08;;;;;;;8.45;7.65;;;;;;;6.92;48.89;101613.19;5090142;28;20418;-58
2022/04/04 00:32:36;;;;;;;8.30;7.50;;;;;;;6.99;48.79;101611.75;5090297;28;20496;-60
2022/04/04 00:35:03;;;;;;;8.38;7.57;;;;;;;6.87;49.41;101614.38;5089721;28;20475;-58
2022/04/04 00:37:30;;;;;;;8.33;7.43;;;;;;;6.91;48.72;101619.41;5090187;28;20413;-58
2022/04/04 00:39:57;;;;;;;8.30;7.50;;;;;;;6.74;49.91;101616.34;5089818;28;20512;-57
2022/04/04 00:42:25;;;;;;;8.00;7.30;;;;;;;6.69;49.53;101618.50;5090157;28;20445;-58
2022/04/04 00:44:52;;;;;;;8.00;7.20;;;;;;;6.50;50.33;101612.06;5089752;28;20895;-58
2022/04/04 00:47:19;;;;;;;7.88;7.13;;;;;;;6.41;50.28;101610.16;5089949;28;20987;-59
2022/04/04 00:49:47;;;;;;;8.20;7.40;;;;;;;6.63;49.74;101606.66;5090109;28;20428;-58
2022/04/04 00:52:14;;;;;;;8.18;7.38;;;;;;;6.52;49.83;101609.31;5089861;28;20486;-58
2022/04/04 00:54:42;;;;;;;8.70;7.80;;;;;;;6.48;49.68;101603.44;5089430;28;20405;-59
2022/04/04 00:57:09;;;;;;;8.48;7.68;;;;;;;6.35;50.75;101608.00;5089363;28;20790;-57
2022/04/04 00:59:40;;;;;;;8.40;7.47;;;;;;;6.27;50.98;101605.13;5089808;28;20508;-59
2022/04/04 01:02:07;;;;;;;8.50;7.70;;;;;;;6.07;50.40;101610.16;5089391;28;20902;-58
2022/04/04 01:04:34;;;;;;;8.50;7.70;;;;;;;6.22;50.35;101607.28;5089385;28;20899;-58
2022/04/04 01:07:01;;;;;;;8.67;7.77;;;;;;;6.26;50.84;101604.28;5089269;28;20416;-57
2022/04/04 01:09:29;;;;;;;9.40;8.50;;;;;;;6.23;50.76;101606.31;5089214;28;20409;-58
2022/04/04 01:12:05;;;;;;;8.63;7.82;;;;;;;6.16;50.45;101611.25;5089117;28;20420;-60
2022/04/04 01:14:32;;;;;;;9.25;8.35;;;;;;;6.41;49.60;101607.53;5089874;28;20458;-57
2022/04/04 01:17:01;;;;;;;9.15;8.25;;;;;;;6.25;50.33;101601.78;5090170;28;20414;-59
2022/04/04 01:19:28;;;;;;;9.23;8.32;;;;;;;6.26;50.11;101600.81;5081263;28;20425;-58
2022/04/04 01:21:54;;;;;;;9.20;8.30;;;;;;;6.36;50.14;101599.16;5088305;28;20412;-59
2022/04/04 01:24:23;;;;;;;9.30;8.40;;;;;;;6.13;50.44;101593.03;5089061;28;20505;-58
2022/04/04 01:26:51;;;;;;;9.65;8.65;;;;;;;5.97;51.23;101592.56;5089113;28;20405;-58
2022/04/04 01:29:19;;;;;;;9.20;8.40;;;;;;;6.12;50.49;101596.63;5088910;28;20405;-58
2022/04/04 01:31:46;;;;;;;9.38;8.48;;;;;;;5.94;50.66;101602.34;5088999;28;20409;-58
2022/04/04 01:34:14;;;;;;;9.70;8.80;;;;;;;5.88;51.29;101600.16;5088728;28;20865;-58
2022/04/04 01:36:41;;;;;;;9.70;8.80;;;;;;;5.84;50.89;101598.72;5088685;28;20899;-59
2022/04/04 01:39:08;;;;;;;10.33;9.17;;;;;;;5.91;51.12;101602.56;5088718;28;20425;-59
2022/04/04 01:41:36;;;;;;;9.93;9.02;;;;;;;5.87;50.46;101609.03;5089152;28;20432;-57
2022/04/04 01:44:03;;;;;;;10.35;9.40;;;;;;;5.84;51.08;101613.69;5088532;28;20495;-58
2022/04/04 01:46:30;;;;;;;10.43;9.43;;;;;;;6.09;50.15;101613.50;5088689;28;21189;-59
2022/04/04 01:48:59;;;;;;;10.77;9.70;;;;;;;6.17;49.55;101622.59;5089117;28;20413;-57
2022/04/04 01:51:27;;;;;;;10.70;9.68;;;;;;;6.04;49.77;101620.09;5088695;28;20926;-57
2022/04/04 01:53:54;;;;;;;10.07;9.17;;;;;;;5.83;50.77;101622.53;5088738;28;20427;-58
2022/04/04 01:56:21;;;;;;;10.02;9.07;;;;;;;5.82;50.37;101629.59;5088418;28;20425;-58
2022/04/04 01:58:50;;;;;;;11.07;9.98;;;;;;;5.92;49.99;101621.81;5088157;28;20439;-58
2022/04/04 02:01:18;;;;;;;10.40;9.40;;;;;;;6.00;50.06;101630.00;5088556;28;20494;-60
2022/04/04 02:04:40;;;;;;;12.93;11.63;;;;;;;5.82;50.56;101629.59;5070569;28;20408;-59
2022/04/04 02:07:07;;;;;;;83.35;58.00;;;;;;;5.63;50.54;101629.28;5064279;28;20530;-58
2022/04/04 02:09:40;;;;;;;12.05;10.85;;;;;;;5.44;51.16;101625.41;5064067;28;20428;-57
2022/04/04 02:12:10;;;;;;;17.38;15.98;;;;;;;5.55;50.74;101624.63;5063609;28;20427;-57
2022/04/04 02:14:37;;;;;;;12.77;11.57;;;;;;;5.50;51.18;101618.84;5063871;28;20423;-57
2022/04/04 02:17:59;;;;;;;19.45;17.95;;;;;;;5.30;51.70;101617.72;5095692;27;20482;-58
2022/04/04 02:20:26;;;;;;;23.60;21.80;;;;;;;5.50;51.00;101619.69;5086385;28;20418;-57
2022/04/04 02:22:53;;;;;;;14.20;12.82;;;;;;;5.47;51.05;101616.44;5087063;28;20497;-57
2022/04/04 02:25:20;;;;;;;14.10;12.70;;;;;;;5.48;50.98;101620.75;5086629;28;20966;-57
2022/04/04 02:27:47;;;;;;;14.23;12.73;;;;;;;5.33;51.40;101628.84;5086893;28;20509;-57
2022/04/04 02:30:14;;;;;;;12.63;11.45;;;;;;;5.30;51.08;101626.41;5086530;28;20410;-57
2022/04/04 02:32:41;;;;;;;12.93;11.63;;;;;;;5.20;51.63;101629.84;5085538;28;20450;-57
2022/04/04 02:35:10;;;;;;;12.25;11.07;;;;;;;5.19;51.65;101634.25;5086958;28;20493;-56
2022/04/04 02:37:37;;;;;;;13.45;12.23;;;;;;;5.19;51.09;101631.63;5086669;28;20437;-56
2022/04/04 02:40:05;;;;;;;14.70;13.30;;;;;;;5.23;50.80;101640.13;5086369;28;20416;-57
2022/04/04 02:42:32;;;;;;;14.70;13.25;;;;;;;4.97;51.43;101630.56;5086363;28;20915;-57
2022/04/04 02:44:59;;;;;;;19.13;17.52;;;;;;;5.02;51.55;101630.22;5086266;28;20505;-57
2022/04/04 02:47:26;;;;;;;19.33;17.45;;;;;;;5.11;51.55;101641.84;5086209;28;20506;-57
2022/04/04 02:49:53;;;;;;;16.48;14.93;;;;;;;5.13;51.38;101632.94;5086190;28;20493;-57
2022/04/04 02:52:21;;;;;;;15.00;13.40;;;;;;;5.09;51.43;101634.06;5086067;28;20398;-56
2022/04/04 02:54:48;;;;;;;14.43;12.93;;;;;;;5.02;51.74;101638.09;5086022;28;20409;-57
2022/04/04 02:57:16;;;;;;;15.73;14.13;;;;;;;5.07;51.11;101637.78;5085936;28;20843;-57
2022/04/04 02:59:43;;;;;;;16.08;14.48;;;;;;;5.00;51.44;101637.38;5086257;28;20421;-57
2022/04/04 03:02:10;;;;;;;26.90;24.40;;;;;;;5.03;51.72;101644.22;5086238;28;20497;-57
2022/04/04 03:04:40;;;;;;;20.60;18.70;;;;;;;5.05;51.84;101637.06;5086175;28;20427;-56
2022/04/04 03:07:07;;;;;;;20.13;18.33;;;;;;;5.08;51.89;101642.09;5085822;28;20410;-57
2022/04/04 03:09:37;;;;;;;22.27;20.23;;;;;;;5.02;51.49;101640.72;5085998;28;20421;-57
2022/04/04 03:12:33;;;;;;;19.33;17.52;;;;;;;4.89;52.19;101653.91;5114670;27;20404;-56
2022/04/04 03:15:00;;;;;;;29.20;26.67;;;;;;;4.86;52.63;101643.66;5107440;28;20499;-56
2022/04/04 03:17:28;;;;;;;24.33;22.15;;;;;;;4.95;52.24;101650.00;5101430;28;20508;-65
2022/04/04 03:19:55;;;;;;;16.95;15.25;;;;;;;4.86;52.54;101648.03;5077148;28;20476;-56
2022/04/04 03:22:22;;;;;;;22.85;20.85;;;;;;;4.94;52.01;101656.22;5106942;28;20957;-57
2022/04/04 03:24:49;;;;;;;30.00;27.55;;;;;;;4.93;52.07;101647.50;5107145;28;20495;-58
2022/04/04 03:27:16;;;;;;;23.30;21.37;;;;;;;4.92;52.12;101660.75;5103047;28;20416;-57
2022/04/04 03:29:45;;;;;;;25.02;22.83;;;;;;;5.03;51.81;101662.63;5086569;28;20410;-57
2022/04/04 03:32:12;;;;;;;25.63;23.08;;;;;;;5.11;51.39;101660.25;5086618;28;20430;-59
2022/04/04 03:34:39;;;;;;;20.95;18.85;;;;;;;5.07;51.76;101664.06;5086471;28;20907;-57
2022/04/04 03:37:07;;;;;;;25.70;23.20;;;;;;;5.18;51.58;101666.75;5087816;28;20505;-57
2022/04/04 03:40:24;;;;;;;27.00;22.77;;;;;;;5.02;51.65;101672.25;5112736;27;2070930;-57
2022/04/04 03:42:53;;;;;;;27.55;22.27;;;;;;;5.08;51.76;101682.34;5153293;27;20415;-57
2022/04/04 03:45:21;;;;;;;27.98;24.25;;;;;;;5.14;52.49;101678.44;5151785;27;20436;-56
2022/04/04 03:47:49;;;;;;;31.55;27.80;;;;;;;5.20;52.25;101680.59;5147594;27;20409;-57
2022/04/04 03:50:18;;;;;;;33.35;27.98;;;;;;;5.30;51.60;101681.63;5146956;27;20417;-57
2022/04/04 03:52:50;;;;;;;42.45;33.78;;;;;;;5.27;51.07;101691.53;5147201;27;20412;-57
2022/04/04 03:55:17;;;;;;;39.43;35.37;;;;;;;5.28;50.98;101687.97;5147272;27;20417;-57
2022/04/04 03:57:46;;;;;;;20.45;18.25;;;;;;;5.10;51.37;101684.88;5146840;27;20818;-56
2022/04/04 04:00:13;;;;;;;18.75;16.95;;;;;;;5.18;51.04;101685.16;5146848;27;20468;-56
2022/04/04 04:02:40;;;;;;;18.33;16.73;;;;;;;5.25;50.64;101680.28;5143275;27;20432;-57
2022/04/04 04:05:08;;;;;;;22.55;20.48;;;;;;;5.40;50.46;101684.41;5142257;27;20405;-57
2022/04/04 04:07:35;;;;;;;18.90;17.13;;;;;;;5.45;50.50;101678.84;5142002;27;20420;-57
2022/04/04 04:10:04;;;;;;;18.52;16.92;;;;;;;5.57;49.85;101691.09;5142224;27;20419;-56
2022/04/04 04:12:32;;;;;;;21.65;19.90;;;;;;;5.72;50.07;101684.66;5146433;27;20526;-58
2022/04/04 04:15:00;;;;;;;15.57;13.98;;;;;;;5.83;49.08;101691.75;5156137;27;20989;-58
2022/04/04 04:17:28;;;;;;;17.50;15.90;;;;;;;6.07;49.03;101693.56;5153180;27;20403;-66
2022/04/04 04:22:39;;;;;;;24.63;22.02;;;;;;;6.44;47.81;101702.09;5157580;27;20398;-58
2022/04/04 04:25:07;;;;;;;26.27;19.33;;;;;;;6.64;47.69;101702.34;5133200;27;20925;-57
2022/04/04 04:27:34;;;;;;;26.20;20.08;;;;;;;6.94;47.08;101703.53;5137492;27;20431;-58
2022/04/04 04:30:03;;;;;;;28.65;23.45;;;;;;;7.11;46.60;101707.44;5126904;27;20491;-57
2022/04/04 04:32:30;;;;;;;28.03;25.03;;;;;;;7.11;46.37;101716.19;5130240;27;20481;-57
2022/04/04 04:34:57;;;;;;;21.65;19.33;;;;;;;7.05;46.56;101711.41;5136734;27;20417;-58
2022/04/04 04:37:24;;;;;;;18.67;14.90;;;;;;;7.53;45.92;101710.22;5128206;27;20402;-59
2022/04/04 04:39:51;;;;;;;17.00;14.37;;;;;;;7.79;45.19;101716.81;5126340;27;20510;-58
2022/04/04 04:42:34;;;;;;;16.67;14.18;;;;;;;7.47;45.77;101708.91;5095384;27;2077358;-58
2022/04/04 04:45:01;;;;;;;15.73;14.07;;;;;;;7.09;46.69;101715.47;5148242;27;20397;-57
2022/04/04 04:47:30;;;;;;;19.65;15.43;;;;;;;7.07;46.89;101712.94;5145707;27;20914;-58
2022/04/04 04:49:57;;;;;;;20.27;17.00;;;;;;;6.95;47.65;101707.81;5146080;27;20409;-60
2022/04/04 04:52:24;;;;;;;18.67;16.30;;;;;;;6.87;47.76;101705.81;5145452;27;20980;-59
2022/04/04 04:54:51;;;;;;;21.08;18.20;;;;;;;6.89;47.69;101714.41;5146936;27;20492;-58
2022/04/04 04:57:19;;;;;;;21.25;17.50;;;;;;;7.08;46.83;101705.91;5140506;27;20426;-57
2022/04/04 04:59:48;;;;;;;19.57;16.60;;;;;;;7.03;46.86;101716.81;5109197;27;20526;-58
2022/04/04 05:02:15;;;;;;;17.60;14.48;;;;;;;7.24;46.28;101713.44;5098860;28;20871;-58
2022/04/04 05:04:42;;;;;;;15.05;13.45;;;;;;;7.08;46.22;101712.00;5084648;28;20406;-58
2022/04/04 05:07:09;;;;;;;14.80;13.23;;;;;;;7.08;46.36;101716.44;5083413;28;20425;-59
2022/04/04 05:09:36;;;;;;;14.43;12.73;;;;;;;7.17;46.61;101718.34;5085366;28;20502;-58
2022/04/04 05:12:03;;;;;;;17.40;15.70;;;;;;;7.52;45.31;101713.81;5102882;28;20503;-58
2022/04/04 05:14:30;;;;;;;16.40;14.73;;;;;;;7.85;45.12;101716.31;5106437;28;20794;-58
2022/04/04 05:16:58;;;;;;;14.25;12.77;;;;;;;9.64;41.49;101713.28;5105875;28;20413;-57
2022/04/04 05:19:26;;;;;;;12.15;10.95;;;;;;;10.39;39.36;101708.16;5105945;28;20492;-58
2022/04/04 05:21:53;;;;;;;12.52;10.88;;;;;;;11.55;37.33;101705.88;5105316;28;20507;-57
2022/04/04 05:24:20;;;;;;;12.65;11.32;;;;;;;12.12;35.91;101703.72;5105841;28;20439;-57
2022/04/04 05:26:47;;;;;;;15.38;12.25;;;;;;;12.31;35.66;101697.34;5104895;28;20817;-57
2022/04/04 05:29:15;;;;;;;17.02;13.93;;;;;;;12.57;35.06;101697.34;5104568;28;20484;-57
2022/04/04 05:31:42;;;;;;;14.50;12.68;;;;;;;12.99;34.39;101696.47;5102750;28;20485;-57
2022/04/04 05:34:10;;;;;;;15.18;13.57;;;;;;;13.68;33.27;101703.47;5101659;28;20966;-56
2022/04/04 05:36:37;;;;;;;14.73;12.77;;;;;;;13.96;32.65;101688.78;5103618;28;20858;-57
2022/04/04 05:39:06;;;;;;;15.18;13.60;;;;;;;13.89;32.81;101698.47;5102458;28;20425;-57
2022/04/04 05:41:36;;;;;;;15.65;13.80;;;;;;;14.33;32.09;101697.22;5101463;28;20519;-57
2022/04/04 05:44:04;;;;;;;15.15;13.52;;;;;;;15.27;30.64;101708.88;5102298;28;20440;-57
2022/04/04 05:46:31;;;;;;;15.50;13.90;;;;;;;15.97;29.59;101704.38;5105363;28;20408;-57
2022/04/04 05:48:58;;;;;;;15.45;13.75;;;;;;;16.07;29.31;101706.78;5105149;28;20412;-57
2022/04/04 05:51:27;;;;;;;15.52;13.40;;;;;;;16.99;28.12;101713.63;5104030;28;20417;-57
2022/04/04 05:53:54;;;;;;;14.83;13.33;;;;;;;17.46;27.21;101706.09;5089335;28;20416;-57
2022/04/04 05:56:22;;;;;;;14.77;13.17;;;;;;;17.55;26.91;101716.47;5090613;28;20922;-58
2022/04/04 05:58:49;;;;;;;15.20;12.68;;;;;;;17.70;26.49;101718.25;5090962;28;20405;-58
2022/04/04 06:01:16;;;;;;;14.15;12.55;;;;;;;17.55;26.51;101711.09;5091383;28;20433;-58
2022/04/04 06:03:42;;;;;;;13.75;11.70;;;;;;;16.84;27.37;101719.00;5091443;28;20409;-57
2022/04/04 06:06:09;;;;;;;13.68;12.38;;;;;;;17.45;26.54;101720.50;5090648;28;21271;-57
2022/04/04 06:08:38;;;;;;;14.40;12.90;;;;;;;19.19;24.45;101709.88;5091687;28;20899;-57
2022/04/04 06:11:05;;;;;;;16.35;13.50;;;;;;;18.88;24.60;101711.25;5087875;28;20416;-57
2022/04/04 06:13:31;;;;;;;14.65;12.27;;;;;;;19.55;23.98;101711.41;5091619;28;20496;-57
2022/04/04 06:15:58;;;;;;;14.17;12.77;;;;;;;20.36;22.61;101702.28;5091629;28;20933;-58
2022/04/04 06:18:26;;;;;;;14.23;12.63;;;;;;;19.96;23.15;101714.97;5091297;28;20435;-57
2022/04/04 06:20:53;;;;;;;15.15;12.85;;;;;;;20.16;22.90;101715.78;5090206;28;20502;-57
2022/04/04 06:23:20;;;;;;;14.55;12.73;;;;;;;19.85;23.13;101703.78;5089339;28;20496;-59
2022/04/04 06:25:51;;;;;;;14.20;12.45;;;;;;;20.08;22.77;101716.00;5089464;28;20895;-58
2022/04/04 06:28:18;;;;;;;14.40;12.40;;;;;;;21.56;21.07;101719.81;5090787;28;20935;-57
2022/04/04 06:30:45;;;;;;;15.80;13.98;;;;;;;22.42;20.36;101712.00;5092704;28;20841;-58
2022/04/04 06:33:12;;;;;;;13.80;12.15;;;;;;;22.52;20.10;101712.31;5089233;28;20420;-57
2022/04/04 06:35:39;;;;;;;14.75;13.20;;;;;;;24.27;18.34;101714.94;5088697;28;20413;-58
2022/04/04 06:38:08;;;;;;;14.73;12.57;;;;;;;24.01;18.57;101713.56;5091014;28;20413;-58
2022/04/04 06:40:35;;;;;;;14.80;11.77;;;;;;;24.74;17.63;101705.91;5090840;28;20842;-58
2022/04/04 06:43:04;;;;;;;14.02;12.60;;;;;;;24.81;17.62;101714.72;5090698;28;20429;-58
2022/04/04 06:45:30;;;;;;;14.63;13.07;;;;;;;23.37;18.83;101716.84;5093742;28;20502;-58
2022/04/04 06:47:57;;;;;;;12.80;11.57;;;;;;;22.75;19.33;101711.63;5090739;28;20488;-58
2022/04/04 06:50:25;;;;;;;13.95;11.75;;;;;;;22.96;19.23;101713.03;5091345;28;20417;-57
2022/04/04 06:52:53;;;;;;;11.52;10.40;;;;;;;23.59;18.42;101719.84;5091155;28;20419;-58
2022/04/04 06:55:20;;;;;;;13.35;10.60;;;;;;;24.45;17.83;101713.97;5086089;28;20411;-60
2022/04/04 06:57:47;;;;;;;12.00;10.52;;;;;;;23.61;18.44;101728.53;5070836;28;20897;-59
2022/04/04 07:00:17;;;;;;;11.48;10.38;;;;;;;23.16;18.75;101720.06;5070590;28;20762;-58
2022/04/04 07:02:44;;;;;;;11.85;10.60;;;;;;;24.03;18.09;101723.06;5075472;28;20425;-58
2022/04/04 07:05:11;;;;;;;13.82;12.35;;;;;;;25.05;17.19;101717.34;5082028;28;20419;-59
2022/04/04 07:07:38;;;;;;;10.80;9.75;;;;;;;26.51;15.77;101705.59;5088398;28;20428;-58
2022/04/04 07:10:06;;;;;;;10.90;9.73;;;;;;;29.64;13.46;101703.16;5085023;28;20422;-58
2022/04/04 07:12:33;;;;;;;11.27;10.18;;;;;;;29.84;13.33;101702.38;5081609;28;20417;-59
2022/04/04 07:15:00;;;;;;;11.73;10.38;;;;;;;30.41;12.51;101703.84;5088339;28;20492;-58
2022/04/04 07:17:28;;;;;;;12.02;10.63;;;;;;;30.80;12.13;101707.78;5089817;28;20425;-59
2022/04/04 07:19:55;;;;;;;10.48;8.52;;;;;;;30.79;11.37;101703.38;5089181;28;20404;-59
2022/04/04 07:22:22;;;;;;;10.25;8.43;;;;;;;31.50;10.92;101704.88;5089240;28;20519;-59
2022/04/04 07:24:49;;;;;;;8.98;8.02;;;;;;;32.33;10.23;101702.09;5088818;28;20497;-59
2022/04/04 07:27:16;;;;;;;8.43;7.63;;;;;;;32.66;9.39;101700.31;5086283;28;20409;-59
2022/04/04 07:29:43;;;;;;;7.80;7.20;;;;;;;31.33;10.49;101696.19;5089189;28;20492;-59
2022/04/04 07:32:10;;;;;;;8.65;7.50;;;;;;;31.79;10.00;101693.88;5089228;28;20859;-59
2022/04/04 07:34:38;;;;;;;8.35;7.57;;;;;;;32.93;9.60;101693.34;5089105;28;20413;-59
2022/04/04 07:37:05;;;;;;;10.52;9.52;;;;;;;31.95;10.12;101697.28;5089325;28;20895;-59
2022/04/04 07:39:33;;;;;;;9.63;8.63;;;;;;;27.29;13.00;101690.97;5086299;28;20811;-58
2022/04/04 07:42:00;;;;;;;8.88;7.90;;;;;;;24.11;15.03;101715.66;5088106;28;20433;-60
2022/04/04 07:44:27;;;;;;;10.63;8.52;;;;;;;22.41;16.43;101715.75;5088913;28;20863;-59
2022/04/04 07:46:54;;;;;;;12.30;11.00;;;;;;;23.05;17.16;101702.75;5087267;28;20496;-57
2022/04/04 07:49:21;;;;;;;9.20;8.20;;;;;;;21.25;18.04;101716.03;5088339;28;20413;-58
2022/04/04 07:51:49;;;;;;;9.70;8.77;;;;;;;21.25;18.07;101725.97;5083416;28;21621;-59
2022/04/04 07:54:16;;;;;;;7.82;6.85;;;;;;;20.14;18.54;101714.34;5085645;28;20405;-59
2022/04/04 07:56:43;;;;;;;9.10;7.55;;;;;;;19.53;19.32;101718.84;5085381;28;20410;-58
2022/04/04 07:59:10;;;;;;;9.23;8.32;;;;;;;18.52;20.42;101722.19;5085830;28;20783;-57
2022/04/04 08:01:38;;;;;;;8.90;8.00;;;;;;;18.39;20.62;101717.59;5081504;28;20508;-58
2022/04/04 08:04:05;;;;;;;12.35;11.05;;;;;;;18.14;21.03;101712.66;5088980;28;20412;-58
2022/04/04 08:06:32;;;;;;;13.25;10.20;;;;;;;17.82;21.82;101724.75;5084017;28;20466;-56
2022/04/04 08:09:00;;;;;;;10.20;8.60;;;;;;;17.38;21.93;101718.59;5087431;28;20409;-57
2022/04/04 08:11:27;;;;;;;9.73;8.52;;;;;;;16.85;22.49;101722.50;5086259;28;20417;-58
2022/04/04 08:13:54;;;;;;;11.27;9.13;;;;;;;16.64;23.12;101721.38;5091499;28;20405;-56
2022/04/04 08:16:22;;;;;;;10.43;8.32;;;;;;;16.22;23.34;101722.84;5089198;28;20505;-57
2022/04/04 08:18:49;;;;;;;8.30;7.50;;;;;;;15.46;23.83;101726.25;5089388;28;20504;-58
2022/04/04 08:21:17;;;;;;;9.52;7.93;;;;;;;15.55;23.87;101723.56;5089523;28;20491;-57
2022/04/04 08:23:44;;;;;;;9.25;8.25;;;;;;;15.82;23.75;101720.34;5079997;28;20411;-57
2022/04/04 08:26:12;;;;;;;10.93;8.23;;;;;;;15.21;24.25;101719.41;5085424;28;20423;-57
2022/04/04 08:28:39;;;;;;;11.98;8.20;;;;;;;15.83;23.75;101708.66;5089731;28;20474;-58
2022/04/04 08:31:06;;;;;;;11.50;8.18;;;;;;;16.13;24.12;101711.38;5088880;28;20496;-57
2022/04/04 08:33:33;;;;;;;9.25;8.10;;;;;;;15.42;24.50;101708.94;5083395;28;20810;-58
2022/04/04 08:36:03;;;;;;;10.77;8.30;;;;;;;15.29;25.14;101711.38;5083203;28;20504;-57
2022/04/04 08:38:31;;;;;;;10.98;8.00;;;;;;;15.39;24.87;101714.63;5078055;28;20413;-57
2022/04/04 08:41:02;;;;;;;10.30;9.02;;;;;;;15.82;24.72;101706.16;5088884;28;20474;-57
2022/04/04 08:43:35;;;;;;;11.10;8.90;;;;;;;16.25;24.31;101695.72;5088885;28;20430;-57
2022/04/04 08:46:05;;;;;;;9.65;8.75;;;;;;;16.12;24.40;101695.53;5089342;28;20458;-58
2022/04/04 08:48:32;;;;;;;11.82;8.60;;;;;;;16.13;24.27;101689.16;5089302;28;20790;-57
2022/04/04 08:50:59;;;;;;;11.88;9.73;;;;;;;16.25;24.71;101695.72;5089057;28;20981;-57
2022/04/04 08:53:26;;;;;;;12.85;9.98;;;;;;;15.97;25.21;101690.13;5088619;28;20413;-57
2022/04/04 08:55:55;;;;;;;12.68;9.55;;;;;;;15.92;25.12;101690.69;5088602;28;20423;-57
2022/04/04 08:58:22;;;;;;;13.00;10.13;;;;;;;15.82;25.55;101684.78;5088615;28;20500;-58
2022/04/04 09:00:50;;;;;;;11.13;9.63;;;;;;;15.26;26.05;101687.69;5088631;28;20496;-58
2022/04/04 09:03:21;;;;;;;11.23;9.63;;;;;;;15.13;26.34;101698.94;5088952;28;20806;-57
2022/04/04 09:05:52;;;;;;;10.18;8.75;;;;;;;15.14;26.27;101697.09;5089221;28;20441;-58
2022/04/04 09:08:19;;;;;;;12.00;8.85;;;;;;;15.63;25.16;101686.91;5088911;28;20405;-58
2022/04/04 09:10:46;;;;;;;10.35;8.43;;;;;;;15.48;24.53;101681.53;5089266;28;20413;-57
2022/04/04 09:13:15;;;;;;;11.00;7.77;;;;;;;15.84;24.27;101675.53;5089167;28;20413;-58
2022/04/04 09:15:54;;;;;;;11.68;8.50;;;;;;;16.03;24.13;101678.72;5088954;28;20401;-57
2022/04/04 09:18:41;;;;;;;10.47;8.00;;;;;;;16.46;23.81;101672.72;5089265;28;20409;-58
2022/04/04 09:21:10;;;;;;;10.40;7.97;;;;;;;16.81;23.04;101671.97;5088813;28;20492;-57
2022/04/04 09:23:51;;;;;;;12.75;9.48;;;;;;;16.72;23.27;101665.06;5088901;28;20425;-57
2022/04/04 09:26:27;;;;;;;9.65;7.63;;;;;;;16.19;23.49;101669.72;5088452;28;20460;-58
2022/04/04 09:28:54;;;;;;;7.57;6.68;;;;;;;15.52;23.44;101663.28;5091130;28;20756;-57
2022/04/04 09:31:23;;;;;;;7.82;7.00;;;;;;;15.63;23.92;101654.84;5091714;28;20405;-57
2022/04/04 09:33:51;;;;;;;9.15;8.23;;;;;;;16.17;23.45;101653.00;5091508;28;20401;-60
2022/04/04 09:36:19;;;;;;;12.77;9.10;;;;;;;16.24;23.55;101638.72;5092281;28;20428;-57
2022/04/04 09:38:55;;;;;;;10.70;8.52;;;;;;;16.54;23.50;101640.53;5092411;28;20990;-57
2022/04/04 09:41:24;;;;;;;9.18;7.53;;;;;;;17.03;23.02;101631.84;5092462;28;20915;-57
2022/04/04 09:43:52;;;;;;;15.38;8.32;;;;;;;17.01;22.74;101631.22;5092120;28;20501;-60
2022/04/04 09:46:19;;;;;;;10.90;8.30;;;;;;;16.87;23.17;101616.03;5092235;28;20409;-58
2022/04/04 09:49:08;;;;;;;9.30;7.90;;;;;;;16.97;22.74;101617.38;5092496;28;20463;-58
2022/04/04 09:51:37;;;;;;;8.45;6.63;;;;;;;16.89;22.59;101612.16;5091993;28;20414;-57
2022/04/04 09:54:05;;;;;;;9.00;7.70;;;;;;;16.90;22.72;101607.63;5092437;28;20417;-56
2022/04/04 09:57:16;;;;;;;9.25;7.70;;;;;;;16.47;23.40;101618.22;5126433;27;20471;-58
2022/04/04 09:59:44;;;;;;;9.60;7.07;;;;;;;16.93;22.89;101615.28;5127494;28;20414;-57
2022/04/04 10:02:13;;;;;;;8.60;7.45;;;;;;;16.73;22.36;101604.31;5127940;27;20493;-57
2022/04/04 10:04:43;;;;;;;8.18;6.82;;;;;;;16.76;22.19;101607.44;5127368;27;20460;-57
2022/04/04 10:07:12;;;;;;;7.77;6.70;;;;;;;17.12;21.52;101601.22;5127638;28;20482;-57
2022/04/04 10:09:41;;;;;;;7.80;6.50;;;;;;;16.96;22.12;101593.44;5127756;28;20415;-57
2022/04/04 10:12:10;;;;;;;10.23;6.75;;;;;;;16.99;21.81;101587.72;5127125;28;20410;-57
2022/04/04 10:14:39;;;;;;;8.23;6.75;;;;;;;16.89;21.80;101588.06;5127069;28;20406;-57
2022/04/04 10:17:08;;;;;;;8.15;6.40;;;;;;;16.96;21.47;101580.91;5127147;27;20812;-57
2022/04/04 10:19:35;;;;;;;8.45;6.32;;;;;;;16.91;22.11;101574.47;5127397;27;20414;-57
2022/04/04 10:22:03;;;;;;;8.63;7.22;;;;;;;16.74;22.10;101576.50;5127499;28;20517;-58
2022/04/04 10:24:30;;;;;;;8.02;6.70;;;;;;;16.94;22.17;101569.56;5127085;28;20940;-57
2022/04/04 10:26:58;;;;;;;8.95;6.38;;;;;;;17.19;21.66;101558.44;5126908;28;20856;-57
2022/04/04 10:29:41;;;;;;;8.23;5.70;;;;;;;17.00;20.85;101563.44;5127279;28;20403;-57
2022/04/04 10:32:22;;;;;;;8.43;6.63;;;;;;;17.15;21.25;101555.31;5127095;27;21210;-57
2022/04/04 10:34:49;;;;;;;10.15;6.10;;;;;;;16.93;21.85;101561.72;5126779;28;20785;-57
2022/04/04 10:37:19;;;;;;;10.35;6.15;;;;;;;16.78;21.78;101559.91;5126695;28;20813;-57
2022/04/04 10:39:48;;;;;;;10.40;5.97;;;;;;;16.71;21.43;101550.13;5127092;28;20487;-57
2022/04/04 10:42:30;;;;;;;14.20;7.88;;;;;;;16.53;21.96;101554.06;5126559;28;20411;-58
2022/04/04 10:45:04;;;;;;;8.25;5.82;;;;;;;16.91;21.10;101540.47;5126586;27;20830;-57
2022/04/04 10:47:32;;;;;;;7.68;5.85;;;;;;;17.03;21.41;101540.78;5126773;28;20978;-56
2022/04/04 10:50:18;;;;;;;7.03;5.72;;;;;;;16.53;21.41;101529.97;5127027;28;20421;-58
2022/04/04 10:52:45;;;;;;;8.23;6.30;;;;;;;16.54;21.58;101528.94;5126719;28;21000;-57
2022/04/04 10:55:43;;;;;;;7.60;5.85;;;;;;;16.64;21.88;101528.66;5126641;28;20498;-59
2022/04/04 10:58:20;;;;;;;7.72;5.65;;;;;;;16.54;21.91;101530.78;5126252;28;20407;-56
2022/04/04 11:01:06;;;;;;;9.18;6.30;;;;;;;16.85;21.62;101514.44;5126660;28;20415;-56
2022/04/04 11:03:35;;;;;;;8.87;6.37;;;;;;;17.16;21.63;101511.44;5126178;28;20418;-56
2022/04/04 11:09:08;;;;;;;9.52;6.05;;;;;;;17.04;21.58;101512.16;5112247;28;20469;-56
2022/04/04 11:11:46;;;;;;;7.60;5.65;;;;;;;16.73;22.13;101508.75;5112592;27;20791;-58
2022/04/04 11:14:14;;;;;;;6.60;5.93;;;;;;;16.65;21.92;101505.38;5112566;28;20486;-57
2022/04/04 11:17:19;;;;;;;7.30;5.68;;;;;;;16.28;21.94;101505.41;5112759;28;20431;-56
2022/04/04 11:19:47;;;;;;;8.63;6.28;;;;;;;16.54;21.92;101496.81;5112416;28;20411;-56
2022/04/04 11:22:15;;;;;;;8.27;6.40;;;;;;;16.63;22.03;101500.22;5112642;28;20491;-56
2022/04/04 11:24:43;;;;;;;11.13;7.90;;;;;;;16.60;22.23;101496.06;5112579;28;20419;-58
2022/04/04 11:27:11;;;;;;;7.10;5.40;;;;;;;16.56;22.22;101488.59;5112208;28;20814;-56
2022/04/04 11:29:40;;;;;;;6.20;5.55;;;;;;;16.79;21.57;101478.53;5112226;28;20965;-56
2022/04/04 11:32:08;;;;;;;8.43;5.80;;;;;;;16.96;21.67;101471.09;5112126;28;20415;-57
2022/04/04 11:34:40;;;;;;;8.80;6.57;;;;;;;17.42;21.04;101467.09;5100588;28;20427;-57